Time;durP1;ratioP1;P1;durP2;ratioP2;P2;SDS_P1;SDS_P2;PMS_P1;PMS_P2;Temp;Humidity;BMP_temperature;BMP_pressure;BME280_temperature;BME280_humidity;BME280_pressure;Samples;Min_cycle;Max_cycle;Signal;HPM_P1;HPM_P2
2021/04/07 00:00:35;;;;;;;33.27;16.33;;;;;;;-1.43;64.02;97806.14;114378;1206;103089;-71
2021/04/07 00:03:17;;;;;;;35.23;17.43;;;;;;;-1.43;63.90;97811.36;114410;1206;103206;-71
2021/04/07 00:05:45;;;;;;;33.75;17.10;;;;;;;-1.43;63.34;97812.19;114535;1206;104703;-73
2021/04/07 00:08:21;;;;;;;31.25;14.70;;;;;;;-1.41;64.00;97822.54;114546;1206;103204;-71
2021/04/07 00:10:48;;;;;;;32.45;16.30;;;;;;;-1.42;63.85;97820.84;114489;1206;103168;-71
2021/04/07 00:13:16;;;;;;;32.65;16.30;;;;;;;-1.43;63.25;97819.18;114509;1206;103161;-71
2021/04/07 00:15:43;;;;;;;30.80;15.80;;;;;;;-1.44;63.77;97827.92;114425;1206;103573;-70
2021/04/07 00:18:11;;;;;;;32.40;16.40;;;;;;;-1.45;63.99;97831.44;114517;1206;103166;-69
2021/04/07 00:20:40;;;;;;;36.55;16.40;;;;;;;-1.46;63.61;97830.58;114520;1206;103357;-72
2021/04/07 00:23:07;;;;;;;29.60;15.10;;;;;;;-1.44;63.99;97835.75;114433;1206;103049;-70
2021/04/07 00:25:34;;;;;;;30.10;14.40;;;;;;;-1.43;63.95;97832.22;114455;1206;103152;-73
2021/04/07 00:28:05;;;;;;;32.30;15.20;;;;;;;-1.43;63.34;97833.06;114363;1206;103085;-69
2021/04/07 00:30:35;;;;;;;33.20;16.50;;;;;;;-1.44;64.12;97831.36;114484;1206;103478;-70
2021/04/07 00:33:04;;;;;;;32.00;15.60;;;;;;;-1.42;63.73;97834.75;114412;1206;103196;-71
2021/04/07 00:35:31;;;;;;;33.25;16.45;;;;;;;-1.43;64.04;97827.84;114491;1206;103334;-70
2021/04/07 00:37:58;;;;;;;30.30;15.60;;;;;;;-1.39;63.72;97841.58;114480;1206;103075;-70
2021/04/07 00:40:25;;;;;;;33.60;17.20;;;;;;;-1.39;64.00;97844.19;114353;1206;103085;-71
2021/04/07 00:42:54;;;;;;;34.75;17.20;;;;;;;-1.38;64.15;97838.06;114421;1206;103065;-70
2021/04/07 00:45:23;;;;;;;34.50;17.15;;;;;;;-1.39;63.46;97845.05;114394;1206;103047;-69
2021/04/07 00:47:52;;;;;;;31.55;16.50;;;;;;;-1.37;63.23;97852.80;114426;1206;103050;-70
2021/04/07 00:50:25;;;;;;;32.25;16.75;;;;;;;-1.37;63.69;97848.44;114553;1206;103085;-69
2021/04/07 00:52:53;;;;;;;26.30;12.70;;;;;;;-1.36;64.26;97849.28;114521;1206;103101;-70
2021/04/07 00:55:24;;;;;;;36.60;18.13;;;;;;;-1.35;63.68;97845.75;114528;1206;103172;-70
2021/04/07 00:57:52;;;;;;;33.30;16.90;;;;;;;-1.35;64.04;97853.58;114473;1206;103239;-70
2021/04/07 01:00:20;;;;;;;34.00;16.90;;;;;;;-1.36;63.71;97854.49;114474;1206;103076;-70
2021/04/07 01:02:52;;;;;;;33.70;17.00;;;;;;;-1.37;63.68;97858.02;114512;1206;103152;-70
2021/04/07 01:05:19;;;;;;;36.30;17.50;;;;;;;-1.37;64.11;97858.88;114512;1206;103169;-70
2021/04/07 01:07:46;;;;;;;36.20;18.40;;;;;;;-1.38;64.09;97864.14;114482;1206;103165;-70
2021/04/07 01:10:15;;;;;;;40.95;18.00;;;;;;;-1.39;63.93;97868.53;114481;1206;103185;-70
2021/04/07 01:12:43;;;;;;;37.90;18.00;;;;;;;-1.38;64.04;97874.58;114361;1206;103095;-70
2021/04/07 01:15:13;;;;;;;35.40;16.60;;;;;;;-1.38;63.97;97875.44;114475;1206;103043;-70
2021/04/07 01:17:41;;;;;;;35.40;17.00;;;;;;;-1.38;63.63;97878.05;114492;1206;103188;-70
2021/04/07 01:20:11;;;;;;;35.00;18.25;;;;;;;-1.38;64.24;97890.23;114419;1206;103079;-69
2021/04/07 01:22:40;;;;;;;35.45;18.15;;;;;;;-1.39;63.76;97886.79;114509;1206;103245;-70
2021/04/07 01:25:09;;;;;;;35.70;16.60;;;;;;;-1.40;63.97;97885.09;114526;1206;103044;-69
2021/04/07 01:27:38;;;;;;;35.13;18.17;;;;;;;-1.40;64.36;97877.27;114491;1206;103044;-69
2021/04/07 01:30:10;;;;;;;35.60;18.30;;;;;;;-1.42;63.92;97879.09;114661;1206;103161;-69
2021/04/07 01:32:38;;;;;;;35.40;17.15;;;;;;;-1.40;64.04;97886.84;114522;1206;103174;-69
2021/04/07 01:35:08;;;;;;;36.50;18.00;;;;;;;-1.41;64.14;97888.62;114535;1206;103158;-69
2021/04/07 01:37:36;;;;;;;41.10;17.85;;;;;;;-1.41;64.23;97886.01;114480;1206;103079;-70
2021/04/07 01:40:09;;;;;;;38.25;19.05;;;;;;;-1.43;63.69;97885.23;114526;1206;103076;-69
2021/04/07 01:42:37;;;;;;;34.05;15.10;;;;;;;-1.41;63.54;97887.75;114523;1206;103082;-70
2021/04/07 01:45:06;;;;;;;40.80;19.00;;;;;;;-1.43;64.04;97893.05;114561;1206;103062;-71
2021/04/07 01:47:34;;;;;;;35.95;19.05;;;;;;;-1.43;63.81;97893.05;114497;1206;103079;-70
2021/04/07 01:50:04;;;;;;;39.30;19.50;;;;;;;-1.44;63.87;97896.57;114453;1206;103200;-70
2021/04/07 01:52:31;;;;;;;41.70;19.80;;;;;;;-1.44;64.32;97896.57;114519;1205;103079;-70
2021/04/07 01:54:59;;;;;;;41.35;21.15;;;;;;;-1.46;64.00;97892.34;114515;1206;103095;-71
2021/04/07 01:57:26;;;;;;;43.50;23.30;;;;;;;-1.47;64.31;97893.26;114566;1206;103101;-69
2021/04/07 01:59:53;;;;;;;42.50;22.20;;;;;;;-1.45;63.95;97894.05;114552;1206;103155;-70
2021/04/07 02:02:20;;;;;;;46.70;22.30;;;;;;;-1.47;64.35;97894.09;114476;1206;103152;-70
2021/04/07 02:04:47;;;;;;;43.60;23.70;;;;;;;-1.48;63.82;97896.78;114539;1206;103644;-71
2021/04/07 02:07:16;;;;;;;44.40;22.70;;;;;;;-1.51;63.80;97890.78;114477;1206;103053;-70
2021/04/07 02:09:44;;;;;;;46.85;24.30;;;;;;;-1.52;64.63;97891.69;114559;1206;103088;-69
2021/04/07 02:12:12;;;;;;;48.20;23.30;;;;;;;-1.54;64.64;97890.91;114529;1206;103216;-70
2021/04/07 02:14:39;;;;;;;42.55;22.85;;;;;;;-1.54;63.95;97895.26;114531;1206;103095;-70
2021/04/07 02:17:07;;;;;;;46.20;23.40;;;;;;;-1.57;63.92;97891.03;114480;1206;103102;-70
2021/04/07 02:19:36;;;;;;;46.55;22.60;;;;;;;-1.58;63.80;97888.48;114511;1206;103095;-71
2021/04/07 02:22:14;;;;;;;42.20;22.00;;;;;;;-1.61;63.71;97888.60;114493;1206;103072;-69
2021/04/07 02:24:44;;;;;;;50.20;24.90;;;;;;;-1.63;64.15;97893.06;114491;1206;103194;-70
2021/04/07 02:27:19;;;;;;;47.70;24.35;;;;;;;-1.66;63.80;97889.67;114512;1206;103050;-70
2021/04/07 02:29:49;;;;;;;47.40;25.60;;;;;;;-1.68;64.12;97888.89;114558;1206;103053;-70
2021/04/07 02:32:17;;;;;;;47.35;24.20;;;;;;;-1.69;64.20;97895.02;114501;1206;103049;-70
2021/04/07 02:34:45;;;;;;;54.30;26.00;;;;;;;-1.72;64.25;97887.31;114508;1205;103538;-71
2021/04/07 02:37:13;;;;;;;50.80;25.10;;;;;;;-1.72;64.38;97891.67;114485;1206;103073;-71
2021/04/07 02:39:42;;;;;;;43.95;23.05;;;;;;;-1.73;64.41;97896.05;114387;1206;103102;-69
2021/04/07 02:42:11;;;;;;;43.60;22.35;;;;;;;-1.73;64.26;97898.66;114455;1206;103079;-69
2021/04/07 02:44:40;;;;;;;42.25;21.00;;;;;;;-1.77;64.65;97894.48;114441;1206;103079;-70
2021/04/07 02:47:08;;;;;;;51.10;24.90;;;;;;;-1.79;64.36;97898.91;114483;1206;103198;-70
2021/04/07 02:49:36;;;;;;;47.35;23.35;;;;;;;-1.81;64.63;97898.13;114365;1206;103219;-69
2021/04/07 02:52:04;;;;;;;49.05;25.35;;;;;;;-1.83;64.51;97894.73;114338;1206;103072;-70
2021/04/07 02:54:32;;;;;;;49.85;25.20;;;;;;;-1.83;64.51;97898.16;114474;1206;103136;-69
2021/04/07 02:57:00;;;;;;;50.10;25.75;;;;;;;-1.84;64.38;97893.89;114501;1206;103548;-69
2021/04/07 02:59:27;;;;;;;44.35;23.70;;;;;;;-1.82;64.14;97893.81;114415;1206;103079;-69
2021/04/07 03:01:54;;;;;;;44.60;22.30;;;;;;;-1.83;64.24;97895.56;114388;1206;104155;-69
2021/04/07 03:04:22;;;;;;;43.30;21.85;;;;;;;-1.82;64.20;97891.21;114478;1206;103532;-69
2021/04/07 03:06:48;;;;;;;47.90;24.30;;;;;;;-1.81;64.52;97890.30;114427;1206;103504;-70
2021/04/07 03:09:16;;;;;;;38.20;18.40;;;;;;;-1.81;64.42;97893.73;114486;1206;103482;-70
2021/04/07 03:11:43;;;;;;;40.30;19.50;;;;;;;-1.82;64.34;97886.83;114424;1206;103137;-70
2021/04/07 03:14:10;;;;;;;41.75;19.95;;;;;;;-1.84;64.27;97893.03;114512;1206;103056;-70
2021/04/07 03:16:37;;;;;;;42.20;20.20;;;;;;;-1.88;64.34;97887.11;114427;1206;103057;-70
2021/04/07 03:19:04;;;;;;;45.70;23.60;;;;;;;-1.88;64.52;97889.72;114348;1206;103520;-70
2021/04/07 03:21:31;;;;;;;47.05;24.00;;;;;;;-1.88;64.26;97887.11;114532;1206;103158;-71
2021/04/07 03:23:58;;;;;;;44.70;24.37;;;;;;;-1.87;64.36;97890.55;114499;1205;103242;-70
2021/04/07 03:26:25;;;;;;;48.00;24.90;;;;;;;-1.89;64.14;97895.84;114454;1205;103079;-70
2021/04/07 03:28:52;;;;;;;47.05;25.90;;;;;;;-1.91;64.67;97891.58;114410;1206;103054;-68
2021/04/07 03:31:19;;;;;;;48.35;24.95;;;;;;;-1.92;64.91;97897.70;114394;1206;103097;-70
2021/04/07 03:33:47;;;;;;;49.65;25.15;;;;;;;-1.93;65.01;97898.61;114522;1206;103078;-70
2021/04/07 03:36:15;;;;;;;50.15;24.25;;;;;;;-1.94;64.49;97905.59;114439;1206;103072;-69
2021/04/07 03:38:42;;;;;;;46.05;21.60;;;;;;;-1.96;64.79;97905.64;114473;1206;103085;-69
2021/04/07 03:41:10;;;;;;;43.50;23.55;;;;;;;-1.95;64.98;97907.34;114482;1206;103081;-69
2021/04/07 03:43:37;;;;;;;45.35;23.70;;;;;;;-1.94;64.84;97905.59;114447;1206;103147;-70
2021/04/07 03:46:04;;;;;;;49.00;25.50;;;;;;;-1.93;65.05;97909.91;114420;1206;103184;-71
2021/04/07 03:48:32;;;;;;;42.93;22.40;;;;;;;-1.94;64.47;97905.59;114466;1206;103203;-70
2021/04/07 03:51:00;;;;;;;42.35;21.45;;;;;;;-1.90;64.56;97908.92;114707;1206;103169;-71
2021/04/07 03:53:28;;;;;;;45.90;21.00;;;;;;;-1.91;64.75;97907.22;114358;1206;103254;-71
2021/04/07 03:55:57;;;;;;;46.40;23.40;;;;;;;-1.91;64.50;97915.04;114425;1206;103062;-72
2021/04/07 03:58:24;;;;;;;48.45;21.65;;;;;;;-1.92;65.12;97911.59;114521;1206;103149;-72
2021/04/07 04:00:52;;;;;;;36.85;19.55;;;;;;;-1.91;65.05;97917.64;114465;1206;103146;-71
2021/04/07 04:03:20;;;;;;;41.55;20.20;;;;;;;-1.91;64.52;97923.72;114443;1205;103062;-71
2021/04/07 04:05:48;;;;;;;43.27;21.27;;;;;;;-1.90;64.84;97928.03;114478;1206;103107;-68
2021/04/07 04:08:17;;;;;;;43.00;22.00;;;;;;;-1.88;64.57;97934.02;114537;1206;103166;-72
2021/04/07 04:10:44;;;;;;;35.20;16.70;;;;;;;-1.88;64.71;97930.55;114545;1206;103730;-73
2021/04/07 04:13:12;;;;;;;37.53;18.53;;;;;;;-1.88;64.92;97941.84;114495;1206;103095;-74
2021/04/07 04:15:39;;;;;;;39.87;20.07;;;;;;;-1.87;64.54;97932.25;114465;1206;103104;-73
2021/04/07 04:18:08;;;;;;;37.77;19.17;;;;;;;-1.86;64.72;97940.03;114466;1206;103111;-76
2021/04/07 04:20:36;;;;;;;39.00;20.30;;;;;;;-1.85;65.12;97946.94;114427;1206;103056;-74
2021/04/07 04:23:04;;;;;;;39.80;21.50;;;;;;;-1.83;64.41;97939.04;114402;1206;103114;-74
2021/04/07 04:25:31;;;;;;;43.50;21.45;;;;;;;-1.81;65.28;97951.09;114364;1206;103152;-72
2021/04/07 04:27:59;;;;;;;42.10;20.15;;;;;;;-1.80;64.85;97939.75;114420;1206;103194;-73
2021/04/07 04:30:29;;;;;;;40.40;22.00;;;;;;;-1.78;65.20;97944.92;114427;1206;103159;-76
2021/04/07 04:32:58;;;;;;;41.90;22.50;;;;;;;-1.76;64.88;97940.50;114460;1207;103082;-75
2021/04/07 04:35:26;;;;;;;42.10;21.35;;;;;;;-1.75;65.30;97947.41;114426;1206;103121;-72
2021/04/07 04:37:53;;;;;;;43.70;22.65;;;;;;;-1.72;65.57;97943.81;114432;1206;103060;-73
2021/04/07 04:40:21;;;;;;;37.73;20.27;;;;;;;-1.69;64.71;97948.91;114432;1206;103236;-73
2021/04/07 04:42:48;;;;;;;38.90;20.30;;;;;;;-1.67;64.94;97954.91;114424;1206;103047;-74
2021/04/07 04:45:16;;;;;;;38.70;19.00;;;;;;;-1.64;65.10;97946.95;114477;1205;103532;-74
2021/04/07 04:47:43;;;;;;;40.60;21.40;;;;;;;-1.61;65.31;97949.44;114511;1206;103197;-74
2021/04/07 04:50:12;;;;;;;43.65;22.60;;;;;;;-1.56;64.90;97957.06;114423;1206;103120;-73
2021/04/07 04:52:39;;;;;;;32.00;14.95;;;;;;;-1.51;65.24;97955.12;114473;1206;103072;-77
2021/04/07 04:55:09;;;;;;;36.05;18.70;;;;;;;-1.45;65.20;97957.48;114330;1205;103111;-77
2021/04/07 04:57:37;;;;;;;36.45;19.90;;;;;;;-1.39;65.69;97957.22;114493;1206;103187;-78
2021/04/07 05:00:07;;;;;;;35.40;16.97;;;;;;;-1.33;65.51;97960.49;114454;1205;103091;-77
2021/04/07 05:02:36;;;;;;;39.70;18.90;;;;;;;-1.32;65.59;97955.20;114523;1206;103049;-77
2021/04/07 05:05:04;;;;;;;35.37;18.87;;;;;;;-1.27;65.09;97963.68;114500;1206;103175;-77
2021/04/07 05:07:32;;;;;;;35.50;18.70;;;;;;;-1.24;65.15;97968.77;114548;1206;103273;-77
2021/04/07 05:09:59;;;;;;;36.80;18.25;;;;;;;-1.21;65.65;97967.78;114506;1206;103163;-78
2021/04/07 05:12:26;;;;;;;40.30;20.50;;;;;;;-1.19;65.12;97965.95;114543;1206;103318;-77
2021/04/07 05:14:53;;;;;;;37.50;19.10;;;;;;;-1.17;64.95;97969.34;114482;1206;103053;-78
2021/04/07 05:17:21;;;;;;;34.80;17.17;;;;;;;-1.13;64.93;97972.69;114509;1207;103148;-78
2021/04/07 05:19:49;;;;;;;39.05;19.75;;;;;;;-1.10;65.15;97972.56;114363;1205;103068;-77
2021/04/07 05:22:17;;;;;;;40.70;20.70;;;;;;;-1.10;65.30;97973.40;114503;1206;103193;-78
2021/04/07 05:24:44;;;;;;;34.30;19.40;;;;;;;-1.06;65.22;97981.96;114506;1206;103056;-77
2021/04/07 05:27:11;;;;;;;37.10;18.90;;;;;;;-1.02;65.69;97987.89;114466;1206;103541;-76
2021/04/07 05:29:38;;;;;;;37.00;18.30;;;;;;;-0.99;65.75;97985.98;114453;1206;103590;-77
2021/04/07 05:32:07;;;;;;;38.95;20.00;;;;;;;-0.95;65.18;97982.33;114492;1206;103171;-77
2021/04/07 05:34:34;;;;;;;34.55;17.15;;;;;;;-0.92;65.49;97989.20;114551;1206;103191;-77
2021/04/07 05:37:02;;;;;;;36.30;19.10;;;;;;;-0.88;64.92;97990.77;114499;1206;103238;-77
2021/04/07 05:39:29;;;;;;;37.45;19.80;;;;;;;-0.85;64.92;97994.98;114481;1205;103107;-76
2021/04/07 05:41:56;;;;;;;39.33;20.73;;;;;;;-0.80;65.84;97995.64;114517;1206;103136;-77
2021/04/07 05:44:23;;;;;;;40.95;22.40;;;;;;;-0.77;65.00;97992.89;114513;1206;103099;-76
2021/04/07 05:46:50;;;;;;;40.97;21.07;;;;;;;-0.73;64.92;97989.23;114526;1206;103612;-75
2021/04/07 05:49:17;;;;;;;38.25;20.55;;;;;;;-0.69;65.46;98001.25;114515;1205;103206;-76
2021/04/07 05:51:44;;;;;;;36.70;19.00;;;;;;;-0.64;65.55;97998.42;114577;1206;103127;-77
2021/04/07 05:54:11;;;;;;;35.30;18.20;;;;;;;-0.60;65.13;97994.76;114443;1205;103162;-76
2021/04/07 05:56:38;;;;;;;35.70;20.30;;;;;;;-0.55;65.16;97995.41;114451;1206;103134;-75
2021/04/07 05:59:04;;;;;;;37.50;19.05;;;;;;;-0.51;65.77;97996.11;114469;1205;103213;-77
2021/04/07 06:01:32;;;;;;;34.70;18.25;;;;;;;-0.45;65.05;97998.45;114371;1205;103116;-76
2021/04/07 06:03:59;;;;;;;38.10;19.55;;;;;;;-0.41;65.84;98002.62;114422;1206;103046;-77
2021/04/07 06:06:26;;;;;;;35.85;19.25;;;;;;;-0.35;65.32;98012.80;114558;1206;103062;-78
2021/04/07 06:08:53;;;;;;;37.55;20.40;;;;;;;-0.31;65.71;98010.88;114514;1205;103059;-76
2021/04/07 06:11:21;;;;;;;40.90;21.10;;;;;;;-0.25;65.95;98018.45;114567;1206;103207;-77
2021/04/07 06:13:49;;;;;;;40.75;20.65;;;;;;;-0.18;65.20;98013.77;114523;1205;103060;-76
2021/04/07 06:16:16;;;;;;;34.30;18.90;;;;;;;-0.09;65.23;98015.14;114420;1204;103126;-78
2021/04/07 06:18:44;;;;;;;42.90;20.30;;;;;;;0.03;65.72;98016.33;114411;1206;103095;-78
2021/04/07 06:21:14;;;;;;;36.70;18.30;;;;;;;0.16;65.83;98009.62;114494;1206;103293;-78
2021/04/07 06:23:41;;;;;;;36.43;17.43;;;;;;;0.25;65.37;98010.94;114480;1205;103098;-78
2021/04/07 06:26:08;;;;;;;34.15;18.10;;;;;;;0.35;65.98;98016.56;114401;1206;103191;-77
2021/04/07 06:28:36;;;;;;;34.25;17.20;;;;;;;0.42;65.71;98018.80;114508;1206;103158;-78
2021/04/07 06:31:04;;;;;;;35.95;18.40;;;;;;;0.51;65.84;98022.77;114416;1206;103130;-76
2021/04/07 06:33:33;;;;;;;39.80;18.70;;;;;;;0.55;65.51;98029.55;114520;1206;103159;-77
2021/04/07 06:36:07;;;;;;;38.57;18.90;;;;;;;0.63;65.52;98038.77;114504;1206;103551;-78
2021/04/07 06:38:36;;;;;;;37.23;19.67;;;;;;;0.67;65.20;98035.09;114515;1206;103133;-79
2021/04/07 06:41:05;;;;;;;37.35;17.90;;;;;;;0.72;65.38;98047.05;114457;1206;103075;-78
2021/04/07 06:43:34;;;;;;;34.30;17.70;;;;;;;0.74;65.68;98041.72;114493;1205;103063;-79
2021/04/07 06:46:03;;;;;;;32.00;16.10;;;;;;;0.80;65.32;98041.42;114439;1206;103490;-81
2021/04/07 06:48:31;;;;;;;33.25;16.95;;;;;;;0.87;65.70;98048.06;114502;1206;103159;-79
2021/04/07 06:50:58;;;;;;;32.00;16.80;;;;;;;0.95;65.40;98049.45;114536;1206;103059;-78
2021/04/07 06:53:28;;;;;;;36.70;19.30;;;;;;;1.02;65.31;98035.97;114505;1206;103158;-77
2021/04/07 06:55:55;;;;;;;33.30;18.05;;;;;;;1.09;65.39;98043.52;114524;1206;103172;-76
2021/04/07 06:58:23;;;;;;;29.00;14.50;;;;;;;1.12;65.02;98045.98;114514;1206;103101;-76
2021/04/07 07:00:53;;;;;;;35.80;17.40;;;;;;;1.09;65.23;98046.14;114404;1206;103216;-76
2021/04/07 07:03:21;;;;;;;37.50;17.95;;;;;;;1.10;65.40;98053.91;114465;1206;103117;-76
2021/04/07 07:05:51;;;;;;;34.90;17.80;;;;;;;1.14;65.35;98055.45;114508;1206;103169;-75
2021/04/07 07:08:37;;;;;;;36.05;18.40;;;;;;;1.17;65.59;98050.05;114440;1205;103124;-76
2021/04/07 07:11:11;;;;;;;34.40;17.10;;;;;;;1.23;65.27;98048.89;114385;1206;103162;-77
2021/04/07 07:13:40;;;;;;;29.25;14.40;;;;;;;1.29;65.29;98050.37;114487;1206;103085;-76
2021/04/07 07:16:10;;;;;;;40.60;19.40;;;;;;;1.39;65.37;98050.73;114463;1206;103143;-76
2021/04/07 07:18:42;;;;;;;40.30;20.55;;;;;;;1.49;65.42;98051.95;114538;1205;103098;-80
2021/04/07 07:21:15;;;;;;;37.70;19.00;;;;;;;1.58;65.29;98059.34;114513;1206;103081;-76
2021/04/07 07:23:46;;;;;;;38.40;18.80;;;;;;;1.71;65.17;98053.44;114486;1206;103095;-76
2021/04/07 07:26:16;;;;;;;38.35;19.00;;;;;;;1.86;65.22;98057.02;114370;1206;103088;-76
2021/04/07 07:28:54;;;;;;;38.80;17.90;;;;;;;1.95;65.09;98067.02;114413;1206;103145;-75
2021/04/07 07:31:29;;;;;;;34.55;16.20;;;;;;;2.12;65.16;98060.03;114481;1206;103078;-77
2021/04/07 07:33:59;;;;;;;32.85;17.05;;;;;;;2.42;65.11;98067.14;114462;1205;103053;-75
2021/04/07 07:36:28;;;;;;;35.00;17.65;;;;;;;2.76;64.69;98054.73;115056;1206;103088;-75
2021/04/07 07:38:57;;;;;;;33.60;17.15;;;;;;;3.15;65.01;98058.62;114523;1206;103053;-77
2021/04/07 07:41:45;;;;;;;33.40;17.25;;;;;;;3.58;64.78;98063.95;114520;1206;103162;-75
2021/04/07 07:44:19;;;;;;;33.30;15.70;;;;;;;4.10;64.93;98060.84;114403;1206;103212;-75
2021/04/07 07:46:49;;;;;;;30.80;14.80;;;;;;;4.48;65.10;98052.34;114382;1206;102387;-76
2021/04/07 07:49:19;;;;;;;29.50;14.60;;;;;;;4.81;64.34;98064.27;114444;1206;103181;-76
2021/04/07 07:51:47;;;;;;;27.60;15.30;;;;;;;4.88;64.52;98062.93;114425;1206;103159;-83
2021/04/07 07:54:17;;;;;;;30.80;15.00;;;;;;;5.05;64.24;98060.95;114451;1205;103281;-76
2021/04/07 07:56:45;;;;;;;29.95;16.75;;;;;;;5.03;63.90;98073.39;114434;1206;103159;-75
2021/04/07 07:59:12;;;;;;;30.10;15.85;;;;;;;5.27;64.22;98070.08;114513;1206;103063;-76
2021/04/07 08:01:45;;;;;;;28.30;16.30;;;;;;;5.39;64.20;98060.50;114472;1206;103216;-78
2021/04/07 08:04:13;;;;;;;30.40;15.30;;;;;;;5.49;64.25;98061.57;114397;1206;103082;-75
2021/04/07 08:06:40;;;;;;;30.30;16.30;;;;;;;5.55;64.44;98062.94;114451;1205;103076;-76
2021/04/07 08:09:10;;;;;;;32.80;16.10;;;;;;;5.77;64.17;98063.13;114389;1206;103082;-74
2021/04/07 08:11:37;;;;;;;31.90;16.80;;;;;;;5.93;64.33;98065.55;114421;1205;103101;-75
2021/04/07 08:14:06;;;;;;;31.83;17.80;;;;;;;5.71;63.92;98078.55;114417;1206;103079;-75
2021/04/07 08:16:37;;;;;;;28.70;16.65;;;;;;;5.37;63.85;98076.41;115028;1206;103165;-76
2021/04/07 08:19:05;;;;;;;33.20;17.40;;;;;;;5.34;64.15;98071.33;114534;1206;103181;-77
2021/04/07 08:21:35;;;;;;;25.70;14.00;;;;;;;5.51;64.24;98070.19;114482;1206;103082;-78
2021/04/07 08:24:04;;;;;;;27.30;14.30;;;;;;;5.58;64.24;98076.75;114491;1206;103163;-76
2021/04/07 08:26:36;;;;;;;29.65;14.50;;;;;;;5.56;64.31;98075.17;114511;1206;103133;-75
2021/04/07 08:29:05;;;;;;;29.43;14.15;;;;;;;5.33;63.49;98077.55;114464;1206;103050;-76
2021/04/07 08:31:38;;;;;;;25.30;13.40;;;;;;;5.09;63.64;98082.70;114476;1205;103544;-77
2021/04/07 08:34:09;;;;;;;27.00;13.60;;;;;;;4.86;63.54;98098.21;114437;1206;103172;-75
2021/04/07 08:36:41;;;;;;;27.45;14.20;;;;;;;4.54;63.33;98095.86;114410;1206;103085;-75
2021/04/07 08:39:11;;;;;;;32.15;14.40;;;;;;;4.53;63.59;98095.00;114653;1206;103076;-76
2021/04/07 08:41:40;;;;;;;26.03;13.70;;;;;;;5.24;63.49;98099.29;114387;1206;103027;-75
2021/04/07 08:44:09;;;;;;;26.15;13.85;;;;;;;6.05;62.93;98092.94;115237;1206;103091;-76
2021/04/07 08:46:44;;;;;;;27.15;15.15;;;;;;;6.90;62.62;98087.84;114499;1206;103088;-76
2021/04/07 08:49:33;;;;;;;24.55;13.35;;;;;;;6.97;63.04;98089.91;114484;1206;103114;-76
2021/04/07 08:52:16;;;;;;;27.60;15.20;;;;;;;7.73;62.38;98099.32;114454;1206;103296;-76
2021/04/07 08:54:51;;;;;;;27.77;16.20;;;;;;;7.84;62.57;98096.67;114401;1206;103203;-75
2021/04/07 08:57:34;;;;;;;29.90;16.10;;;;;;;7.88;62.32;98098.13;114448;1206;103804;-76
2021/04/07 09:00:09;;;;;;;27.50;14.65;;;;;;;7.33;62.98;98100.52;114395;1206;103076;-75
2021/04/07 09:02:54;;;;;;;26.90;14.60;;;;;;;6.80;62.88;98100.89;114479;1205;103056;-78
2021/04/07 09:05:30;;;;;;;27.95;14.85;;;;;;;6.55;62.84;98107.93;114504;1206;103165;-75
2021/04/07 09:07:59;;;;;;;25.30;12.70;;;;;;;6.53;62.54;98109.84;114489;1206;103152;-77
2021/04/07 09:10:27;;;;;;;27.45;13.75;;;;;;;6.23;62.78;98106.65;114501;1206;103091;-77
2021/04/07 09:12:54;;;;;;;29.15;15.20;;;;;;;5.80;62.82;98104.31;114474;1206;103137;-75
2021/04/07 09:15:23;;;;;;;28.55;15.15;;;;;;;6.06;62.55;98104.33;114458;1205;103113;-76
2021/04/07 09:17:54;;;;;;;28.75;14.45;;;;;;;5.68;62.61;98113.06;114437;1206;103156;-75
2021/04/07 09:20:53;;;;;;;28.35;14.75;;;;;;;5.38;62.49;98112.38;114388;1206;103098;-75
2021/04/07 09:23:32;;;;;;;28.70;14.75;;;;;;;5.34;62.52;98110.89;114105;1206;103143;-76
2021/04/07 09:26:13;;;;;;;29.90;16.50;;;;;;;5.55;62.26;98105.14;114319;1206;103055;-74
2021/04/07 09:28:47;;;;;;;31.50;16.80;;;;;;;5.54;62.59;98101.64;114930;1206;102273;-75
2021/04/07 09:31:33;;;;;;;29.60;15.10;;;;;;;5.53;62.72;98107.86;114435;1206;103124;-75
2021/04/07 09:34:00;;;;;;;29.15;13.90;;;;;;;5.41;62.68;98113.98;114420;1206;103062;-76
2021/04/07 09:36:32;;;;;;;27.60;14.80;;;;;;;5.06;62.02;98107.45;114184;1206;103082;-74
2021/04/07 09:39:04;;;;;;;26.30;13.50;;;;;;;4.75;62.31;98114.72;114433;1206;103504;-74
2021/04/07 09:41:34;;;;;;;28.60;14.70;;;;;;;4.48;62.01;98112.91;114445;1206;103102;-75
2021/04/07 09:44:09;;;;;;;28.43;13.53;;;;;;;4.30;62.18;98113.11;114485;1206;103097;-76
2021/04/07 09:46:37;;;;;;;30.40;14.00;;;;;;;4.21;62.47;98112.84;114463;1206;103222;-76
2021/04/07 09:49:10;;;;;;;29.25;14.70;;;;;;;4.28;62.36;98109.72;114503;1205;103088;-77
2021/04/07 09:51:41;;;;;;;27.40;14.40;;;;;;;4.28;62.66;98122.05;114491;1206;103076;-76
2021/04/07 09:54:20;;;;;;;28.10;13.60;;;;;;;4.15;62.32;98114.05;114461;1206;103513;-75
2021/04/07 09:57:14;;;;;;;24.57;12.90;;;;;;;4.00;61.89;98126.37;114470;1206;103172;-76
2021/04/07 09:59:43;;;;;;;29.60;15.80;;;;;;;3.92;61.97;98123.34;114453;1206;103102;-75
2021/04/07 10:02:33;;;;;;;26.80;13.80;;;;;;;3.87;62.18;98123.64;114478;1205;103175;-74
2021/04/07 10:05:27;;;;;;;34.20;17.03;;;;;;;3.80;61.81;98120.55;114223;1206;103212;-78
2021/04/07 10:08:24;;;;;;;34.20;18.20;;;;;;;3.80;61.74;98117.05;114429;1206;103056;-76
2021/04/07 10:10:53;;;;;;;35.95;19.00;;;;;;;3.79;61.78;98129.38;114450;1206;103159;-75
2021/04/07 10:13:22;;;;;;;32.50;17.50;;;;;;;3.81;61.68;98129.27;114330;1206;103142;-75
2021/04/07 10:15:49;;;;;;;31.70;16.80;;;;;;;3.79;62.15;98133.77;114395;1206;103101;-77
2021/04/07 10:18:19;;;;;;;27.90;13.80;;;;;;;3.75;61.48;98158.56;114416;1206;103098;-77
2021/04/07 10:20:46;;;;;;;21.05;8.40;;;;;;;3.30;61.29;98167.27;114428;1206;103152;-76
2021/04/07 10:23:17;;;;;;;21.15;7.45;;;;;;;2.92;61.21;98170.28;114409;1206;103508;-74
2021/04/07 10:25:46;;;;;;;15.05;6.45;;;;;;;2.55;61.26;98170.55;114368;1205;103198;-75
2021/04/07 10:28:20;;;;;;;18.70;7.50;;;;;;;2.34;61.68;98169.93;114392;1206;103570;-76
2021/04/07 10:30:47;;;;;;;20.55;7.80;;;;;;;2.22;61.58;98168.81;114403;1206;103085;-76
2021/04/07 10:33:25;;;;;;;18.60;7.80;;;;;;;2.17;61.54;98158.55;114413;1206;103059;-74
2021/04/07 10:35:59;;;;;;;23.00;9.10;;;;;;;2.19;61.53;98158.48;114395;1206;103200;-75
2021/04/07 10:38:33;;;;;;;20.60;8.63;;;;;;;2.25;61.83;98162.54;114392;1206;103942;-76
2021/04/07 10:41:07;;;;;;;22.00;7.90;;;;;;;2.36;61.74;98147.91;114375;1206;103564;-74
2021/04/07 10:43:42;;;;;;;14.55;5.45;;;;;;;2.46;61.38;98139.54;114325;1205;103567;-73
2021/04/07 10:46:11;;;;;;;19.20;7.20;;;;;;;2.47;61.66;98139.45;114408;1205;103174;-77
2021/04/07 10:48:39;;;;;;;18.05;7.30;;;;;;;2.54;61.17;98145.23;114410;1206;103114;-79
2021/04/07 10:51:09;;;;;;;22.80;10.20;;;;;;;2.67;61.74;98142.77;114409;1206;103149;-75
2021/04/07 10:53:43;;;;;;;25.30;10.30;;;;;;;2.79;61.61;98133.35;114338;1206;103159;-73
2021/04/07 10:56:18;;;;;;;;;;;;;;;3.04;61.86;98139.88;114385;1213;103095;-73
2021/04/07 10:59:06;;;;;;;20.35;7.85;;;;;;;3.30;61.86;98133.09;114338;1206;103169;-73
2021/04/07 11:01:37;;;;;;;18.25;8.25;;;;;;;3.57;62.10;98129.80;114119;1206;103191;-72
2021/04/07 11:04:17;;;;;;;18.00;7.70;;;;;;;3.80;61.52;98114.42;114123;1206;103078;-72
2021/04/07 11:06:45;;;;;;;17.50;6.60;;;;;;;4.06;62.04;98117.27;115844;1205;101495;-74
2021/04/07 11:09:16;;;;;;;14.65;5.40;;;;;;;4.27;62.00;98123.83;115838;1206;101080;-75
2021/04/07 11:11:44;;;;;;;14.40;5.50;;;;;;;4.42;62.08;98123.83;115100;1205;103159;-73
2021/04/07 11:14:13;;;;;;;14.70;5.40;;;;;;;4.46;61.39;98128.79;114172;1206;103175;-74
2021/04/07 11:16:40;;;;;;;13.55;5.25;;;;;;;4.52;61.24;98129.34;114367;1206;103121;-74
2021/04/07 11:19:17;;;;;;;17.40;6.10;;;;;;;4.50;61.30;98121.53;114412;1206;103084;-73